Latest Weather Observations for Laverton

IDW60801

Issued at 5:33 pm WST Sunday 20 August 2017 (issued every 30 minutes, with the page automatically refreshed every 10 minutes)

About weather observations | Map of weather stations | Latest weather observations for WA | Other Formats
Station Details ID: 012305 Name: LAVERTON AERO Lat: -28.61 Lon: 122.42 Height: 464.3 m
Data from the previous 72 hours. | See also: Recent months at Laverton
Date/Time
WST
Temp
°C
App
Temp
°C
Dew
Point
°C
Rel
Hum
%
Delta-T
°C
Wind Press
QNH
hPa
Press
MSL
hPa
Rain since
9am
mm
Dir  Spd
km/h
Gust
km/h
Spd
kts
Gust
kts
20/05:30pm 16.3 11.5 4.7 46 5.6 S 19 30 10 16 1020.5 1020.0 0.0
20/05:00pm 16.8 10.7 4.8 45 5.8 S 26 35 14 19 1020.1 1019.6 0.0
20/04:30pm 17.2 11.6 5.2 45 5.9 SSW 24 35 13 19 1020.0 1019.5 0.0
20/04:00pm 17.6 12.0 5.2 44 6.1 S 24 37 13 20 1020.0 1019.5 0.0
20/03:30pm 17.1 11.1 5.1 45 5.9 S 26 39 14 21 1019.9 1019.4 0.0
20/03:00pm 18.0 12.5 5.9 45 6.1 SSW 24 35 13 19 1019.8 1019.3 0.0
20/02:30pm 17.2 11.3 5.8 47 5.7 SSW 26 35 14 19 1019.8 1019.3 0.0
20/02:00pm 17.0 9.9 5.6 47 5.6 SW 32 43 17 23 1019.8 1019.3 0.0
20/01:30pm 16.9 11.0 5.8 48 5.5 SSW 26 41 14 22 1019.9 1019.4 0.0
20/01:00pm 15.8 9.5 5.7 51 5.0 SSW 28 39 15 21 1020.1 1019.6 0.0
20/12:30pm 15.8 8.9 6.3 53 4.7 SSW 32 46 17 25 1020.5 1020.0 0.0
20/12:22pm 15.7 9.4 5.6 51 5.0 SSW 28 46 15 25 1020.5 1020.0 0.0
20/12:00pm 14.9 8.7 6.2 56 4.3 SSW 28 41 15 22 1020.8 1020.3 0.0
20/11:30am 15.0 9.6 6.3 56 4.3 SW 24 35 13 19 1021.2 1020.6 0.0
20/11:00am 14.3 8.4 5.9 57 4.1 WSW 26 35 14 19 1021.6 1021.1 0.0
20/10:30am 13.4 7.1 5.6 59 3.8 SW 28 35 15 19 1021.7 1021.2 0.0
20/10:00am 13.2 6.5 5.4 59 3.7 WSW 30 44 16 24 1021.8 1021.3 0.0
20/09:30am 12.6 7.0 5.3 61 3.5 SW 24 33 13 18 1021.7 1021.2 0.0
20/09:00am 11.6 6.3 4.8 63 3.2 WSW 22 30 12 16 1021.6 1021.1 0.0
20/08:30am 11.0 5.3 5.1 67 2.8 WSW 24 32 13 17 1021.5 1021.0 0.0
20/08:00am 9.7 4.8 4.9 72 2.2 WSW 20 28 11 15 1021.4 1020.8 0.0
20/07:30am 8.2 3.7 4.4 77 1.7 W 17 24 9 13 1020.8 1020.3 0.0
20/07:00am 6.7 3.3 3.9 82 1.2 W 11 13 6 7 1020.5 1020.0 0.0
20/06:30am 5.7 2.6 3.4 85 1.0 W 9 13 5 7 1020.0 1019.5 0.0
20/06:00am 6.0 2.5 3.5 84 1.1 W 11 15 6 8 1019.6 1019.1 0.0
20/05:30am 6.3 3.1 3.3 81 1.3 W 9 11 5 6 1019.2 1018.6 0.0
20/05:00am 7.2 3.7 3.6 78 1.6 W 11 13 6 7 1018.9 1018.3 0.0
20/04:30am 8.1 4.3 3.8 74 1.9 WSW 13 17 7 9 1018.9 1018.3 0.0
20/04:00am 8.7 4.9 3.7 71 2.2 WSW 13 19 7 10 1018.6 1018.1 0.0
20/03:30am 9.1 4.5 3.5 68 2.5 WSW 17 24 9 13 1018.4 1017.9 0.0
20/03:00am 9.5 5.2 3.5 66 2.7 WSW 15 20 8 11 1018.3 1017.8 0.0
20/02:30am 10.1 5.1 3.4 63 3.0 WSW 19 24 10 13 1018.0 1017.5 0.0
20/02:00am 10.6 5.9 3.4 61 3.2 WSW 17 22 9 12 1017.9 1017.4 0.0
20/01:30am 11.1 5.5 3.2 58 3.6 WSW 22 30 12 16 1017.7 1017.2 0.0
20/01:00am 11.6 5.6 3.1 56 3.8 WSW 24 33 13 18 1017.6 1017.0 0.0
20/12:30am 12.2 5.8 3.4 55 4.0 WSW 26 35 14 19 1017.3 1016.7 0.0
20/12:00am 12.4 7.2 3.4 54 4.1 WSW 20 26 11 14 1017.2 1016.6 0.0
 
Date/Time
WST
Temp
°C
App
Temp
°C
Dew
Point
°C
Rel
Hum
%
Delta-T
°C
Wind Press
QNH
hPa
Press
MSL
hPa
Rain since
9am
mm
Dir  Spd
km/h
Gust
km/h
Spd
kts
Gust
kts
19/11:30pm 13.0 7.0 3.4 52 4.4 WSW 24 30 13 16 1017.2 1016.6 0.0
19/11:00pm 13.7 6.6 3.5 50 4.7 SW 30 39 16 21 1017.2 1016.6 0.0
19/10:30pm 14.2 7.5 3.7 49 4.9 SW 28 39 15 21 1017.2 1016.6 0.0
19/10:00pm 14.8 8.1 3.9 48 5.1 SW 28 35 15 19 1017.1 1016.5 0.0
19/09:30pm 15.2 8.6 4.3 48 5.2 SW 28 37 15 20 1017.0 1016.4 0.0
19/09:00pm 15.6 9.8 4.6 48 5.3 SW 24 33 13 18 1016.9 1016.3 0.0
19/08:30pm 15.9 11.0 4.9 48 5.3 WSW 20 30 11 16 1017.0 1016.4 0.0
19/08:00pm 15.8 11.8 4.8 48 5.3 WSW 15 19 8 10 1016.8 1016.2 0.0
19/07:30pm 16.5 12.5 4.9 46 5.6 WSW 15 20 8 11 1016.5 1015.9 0.0
19/07:00pm 17.4 12.7 5.0 44 6.1 WSW 19 26 10 14 1016.3 1015.8 0.0
19/06:30pm 17.8 12.9 5.1 43 6.3 SW 20 24 11 13 1015.8 1015.2 0.0
19/06:00pm 18.2 12.5 4.7 41 6.6 WSW 24 33 13 18 1015.5 1014.9 0.0
19/05:30pm 19.0 12.8 4.4 38 7.2 WSW 26 35 14 19 1015.2 1014.6 0.0
19/05:00pm 19.9 13.3 4.4 36 7.6 W 28 37 15 20 1014.8 1014.2 0.0
19/04:30pm 20.5 13.2 4.5 35 7.9 WSW 32 44 17 24 1014.5 1013.9 0.0
19/04:00pm 20.4 13.6 5.2 37 7.6 WSW 30 39 16 21 1014.3 1013.7 0.0
19/03:30pm 20.8 13.4 5.2 36 7.9 WSW 33 43 18 23 1013.9 1013.3 0.0
19/03:00pm 22.4 15.3 5.4 33 8.7 WSW 32 44 17 24 1013.6 1013.0 0.0
19/02:30pm 23.0 15.9 6.3 34 8.7 WSW 33 48 18 26 1013.5 1012.9 0.0
19/02:21pm 22.7 16.0 5.6 33 8.8 WSW 30 48 16 26 1013.4 1012.8 0.0
19/02:00pm 23.2 15.9 5.6 32 9.1 WSW 33 43 18 23 1013.4 1012.8 0.0
19/01:30pm 24.0 15.6 5.8 31 9.5 WSW 39 50 21 27 1013.3 1012.7 0.0
19/01:21pm 24.8 16.8 5.6 29 10.0 WSW 37 50 20 27 1013.1 1012.5 0.0
19/01:00pm 26.4 20.3 4.8 25 11.2 WNW 26 37 14 20 1013.1 1012.5 0.0
19/12:34pm 26.4 18.9 3.6 23 11.6 NW 32 54 17 29 1013.3 1012.7 0.0
19/12:30pm 26.4 19.3 3.6 23 11.6 NNW 30 44 16 24 1013.6 1013.0 0.0
19/12:00pm 25.0 17.5 3.6 25 10.8 NNW 32 43 17 23 1014.4 1013.8 0.0
19/11:52am 25.2 17.5 3.2 24 11.0 NNW 33 52 18 28 1014.5 1013.9 0.0
19/11:30am 24.5 17.3 3.2 25 10.6 NW 30 43 16 23 1014.9 1014.3 0.0
19/11:00am 23.8 17.0 3.2 26 10.2 NW 28 37 15 20 1015.3 1014.7 0.0
19/10:30am 24.6 17.1 3.3 25 10.6 NNW 32 41 17 22 1015.6 1015.0 0.0
19/10:00am 23.2 17.1 2.7 26 10.0 NNW 24 35 13 19 1016.1 1015.6 0.0
19/09:30am 22.3 16.9 2.4 27 9.6 NW 20 30 11 16 1016.3 1015.8 0.0
19/09:00am 21.4 15.6 2.2 28 9.2 NNW 22 32 12 17 1016.7 1016.1 0.0
19/08:30am 20.1 14.2 1.5 29 8.7 NNW 22 32 12 17 1016.5 1015.9 0.0
19/08:00am 18.6 13.0 1.2 31 8.0 NNW 20 30 11 16 1016.5 1015.9 0.0
19/07:30am 17.5 9.6 1.1 33 7.4 NNE 32 43 17 23 1015.4 1014.8 0.0
19/07:00am 16.5 9.3 0.6 34 7.1 NNE 28 39 15 21 1015.4 1014.8 0.0
19/06:30am 15.5 7.8 0.1 35 6.7 NE 30 43 16 23 1015.0 1014.4 0.0
19/06:00am 15.6 7.5 -0.2 34 6.9 NE 32 43 17 23 1014.9 1014.3 0.0
19/05:30am 15.7 7.6 -0.1 34 6.9 NE 32 39 17 21 1014.9 1014.3 0.0
19/05:00am 15.9 7.9 0.1 34 6.9 NE 32 44 17 24 1014.7 1014.1 0.0
19/04:30am 15.8 7.7 -0.4 33 7.0 NE 32 46 17 25 1014.7 1014.1 0.0
19/04:00am 15.9 8.2 -0.3 33 7.0 NE 30 43 16 23 1014.9 1014.3 0.0
19/03:30am 16.0 8.3 -0.2 33 7.1 NE 30 43 16 23 1015.0 1014.4 0.0
19/03:00am 16.3 8.6 -0.4 32 7.3 NE 30 39 16 21 1015.3 1014.7 0.0
19/02:30am 16.7 8.6 -0.5 31 7.5 NE 32 44 17 24 1015.6 1015.0 0.0
19/02:00am 16.7 8.3 -0.9 30 7.6 NE 33 46 18 25 1015.9 1015.4 0.0
19/01:30am 16.6 8.8 -1.0 30 7.6 NE 30 43 16 23 1016.2 1015.7 0.0
19/01:00am 16.1 8.2 -1.9 29 7.6 ENE 30 39 16 21 1016.6 1016.0 0.0
19/12:30am 16.4 8.4 -2.1 28 7.8 ENE 30 41 16 22 1016.8 1016.2 0.0
19/12:00am 16.6 9.3 -2.5 27 8.0 NE 26 37 14 20 1017.2 1016.6 0.0
 
Date/Time
WST
Temp
°C
App
Temp
°C
Dew
Point
°C
Rel
Hum
%
Delta-T
°C
Wind Press
QNH
hPa
Press
MSL
hPa
Rain since
9am
mm
Dir  Spd
km/h
Gust
km/h
Spd
kts
Gust
kts
18/11:30pm 17.2 10.0 -2.4 26 8.2 NE 26 35 14 19 1017.5 1016.9 0.0
18/11:00pm 17.0 9.7 -2.6 26 8.2 NE 26 39 14 21 1017.7 1017.2 0.0
18/10:30pm 17.2 10.3 -2.4 26 8.2 NE 24 35 13 19 1018.0 1017.5 0.0
18/10:00pm 17.1 10.1 -3.1 25 8.4 NE 24 32 13 17 1018.2 1017.7 0.0
18/09:30pm 17.5 10.1 -3.3 24 8.6 NE 26 33 14 18 1018.5 1018.0 0.0
18/09:00pm 17.9 10.2 -2.9 24 8.7 NE 28 35 15 19 1018.8 1018.2 0.0
18/08:30pm 18.2 11.6 -3.2 23 8.9 NE 22 32 12 17 1019.1 1018.5 0.0
18/08:00pm 18.8 12.7 -2.7 23 9.1 NE 20 26 11 14 1019.2 1018.6 0.0
18/07:30pm 17.9 12.4 -1.9 26 8.5 ENE 17 20 9 11 1019.2 1018.6 0.0
18/07:00pm 17.1 12.2 -0.6 30 7.7 ENE 15 17 8 9 1019.0 1018.4 0.0
18/06:30pm 17.4 12.6 0.1 31 7.7 E 15 15 8 8 1018.5 1018.0 0.0
18/06:00pm 18.8 14.3 -0.1 28 8.4 ENE 13 15 7 8 1018.2 1017.7 0.0
18/05:30pm 20.7 15.7 -1.1 23 9.7 ENE 15 20 8 11 1018.1 1017.6 0.0
18/05:00pm 22.1 16.1 -1.2 21 10.5 ENE 20 28 11 15 1017.8 1017.3 0.0
18/04:30pm 23.0 17.3 -0.5 21 10.8 NE 19 24 10 13 1017.8 1017.3 0.0
18/04:00pm 23.5 18.0 0.6 22 10.8 NE 19 28 10 15 1017.9 1017.4 0.0
18/03:30pm 23.1 17.3 0.2 22 10.7 NNE 20 26 11 14 1018.0 1017.5 0.0
18/03:00pm 23.2 17.6 -0.3 21 10.8 NE 19 30 10 16 1018.1 1017.6 0.0
18/02:30pm 23.0 17.3 -1.1 20 10.9 ENE 19 28 10 15 1018.3 1017.8 0.0
18/02:00pm 22.8 17.0 -1.3 20 10.9 NNE 19 26 10 14 1018.5 1018.0 0.0
18/01:30pm 22.3 16.5 -1.7 20 10.7 NE 19 28 10 15 1018.9 1018.3 0.0
18/01:00pm 22.0 15.8 -0.1 23 10.1 NE 22 30 12 16 1019.4 1018.8 0.0
18/12:30pm 21.7 16.0 0.3 24 9.9 NE 20 28 11 15 1020.0 1019.5 0.0
18/12:00pm 20.4 13.8 -0.3 25 9.3 NNE 24 30 13 16 1020.5 1020.0 0.0
18/11:30am 19.9 13.0 -0.1 26 9.0 NE 26 35 14 19 1021.4 1020.8 0.0
18/11:00am 19.0 12.0 -0.4 27 8.6 NE 26 33 14 18 1021.8 1021.3 0.0
18/10:30am 17.7 10.6 -1.0 28 8.1 NE 26 35 14 19 1022.3 1021.8 0.0
18/10:00am 17.5 10.1 -0.7 29 7.9 NE 28 39 15 21 1022.6 1022.1 0.0
18/09:30am 15.6 7.3 -1.9 30 7.3 NE 32 43 17 23 1022.8 1022.3 0.0
18/09:00am 14.4 6.8 -2.1 32 6.8 ENE 28 37 15 20 1023.0 1022.5 0.0
18/08:30am 12.3 4.6 -3.1 34 6.1 NE 28 39 15 21 1023.0 1022.5 0.0
18/08:00am 11.0 4.0 -3.5 36 5.6 NE 24 33 13 18 1023.0 1022.5 0.0
18/07:30am 9.8 3.6 -3.5 39 5.1 ENE 20 26 11 14 1022.6 1022.1 0.0
18/07:00am 8.1 1.8 -3.7 43 4.4 ENE 20 28 11 15 1022.2 1021.7 0.0
18/06:30am 7.1 1.0 -3.7 46 4.0 ENE 19 24 10 13 1021.8 1021.3 0.0
18/06:00am 7.6 1.3 -3.9 44 4.2 ENE 20 28 11 15 1021.6 1021.1 0.0
18/05:30am 7.8 1.5 -3.7 44 4.3 ENE 20 26 11 14 1021.3 1020.7 0.0
18/05:00am 7.5 0.9 -3.6 45 4.1 ENE 22 30 12 16 1021.2 1020.6 0.0
18/04:30am 6.2 0.5 -3.4 50 3.5 ENE 17 20 9 11 1021.1 1020.5 0.0
18/04:00am 6.8 1.1 -3.4 48 3.7 ENE 17 22 9 12 1020.9 1020.4 0.0
18/03:30am 7.1 1.4 -3.7 46 4.0 ENE 17 22 9 12 1020.9 1020.4 0.0
18/03:00am 7.6 1.5 -3.9 44 4.2 ENE 19 22 10 12 1020.8 1020.3 0.0
18/02:30am 7.6 1.5 -3.9 44 4.2 ENE 19 22 10 12 1021.1 1020.5 0.0
18/02:00am 7.5 1.2 -3.6 45 4.1 ENE 20 24 11 13 1021.1 1020.5 0.0
18/01:30am 7.5 1.8 -3.4 46 4.0 ENE 17 22 9 12 1021.3 1020.7 0.0
18/01:00am 7.3 1.7 -2.7 49 3.7 E 17 20 9 11 1021.3 1020.7 0.0
18/12:30am 7.2 1.7 -2.2 51 3.6 ENE 17 20 9 11 1021.5 1021.0 0.0
18/12:00am 7.5 2.4 -2.2 50 3.7 E 15 19 8 10 1021.4 1020.8 0.0
 
Date/Time
WST
Temp
°C
App
Temp
°C
Dew
Point
°C
Rel
Hum
%
Delta-T
°C
Wind Press
QNH
hPa
Press
MSL
hPa
Rain since
9am
mm
Dir  Spd
km/h
Gust
km/h
Spd
kts
Gust
kts
17/11:30pm 7.4 2.7 -1.8 52 3.5 E 13 17 7 9 1021.5 1021.0 0.0
17/11:00pm 7.1 2.2 -0.8 57 3.1 ENE 15 17 8 9 1021.5 1021.0 0.0
17/10:30pm 6.9 2.4 -0.3 60 2.9 ENE 13 15 7 8 1021.5 1021.0 0.0
17/10:00pm 7.2 2.7 0.0 60 2.9 ENE 13 15 7 8 1021.7 1021.2 0.0
17/09:30pm 8.9 4.2 -1.5 48 4.1 ENE 13 17 7 9 1021.6 1021.1 0.0
17/09:00pm 7.8 4.6 0.8 61 2.9 E 7 9 4 5 1021.7 1021.2 0.0
17/08:30pm 8.7 5.1 0.9 58 3.3 ESE 9 11 5 6 1021.7 1021.2 0.0
17/08:00pm 9.8 6.2 0.9 54 3.7 SE 9 11 5 6 1021.6 1021.1 0.0
17/07:30pm 10.7 6.3 0.2 48 4.4 SSE 13 15 7 8 1021.6 1021.1 0.0
17/07:00pm 11.4 7.3 -0.1 45 4.8 SSE 11 13 6 7 1021.4 1020.8 0.0
17/06:30pm 12.3 8.1 -0.6 41 5.4 SSE 11 13 6 7 1021.1 1020.5 0.0
17/06:00pm 13.4 9.5 -1.3 36 6.1 SE 9 11 5 6 1020.5 1020.0 0.0

Other Formats:

Comma delimited format used in spreadsheet applications
http://www.bom.gov.au/fwo/IDW60801/IDW60801.94449.axf

JavaScript Object Notation format (JSON) in row-major order
http://www.bom.gov.au/fwo/IDW60801/IDW60801.94449.json